Profil Rumah Sakit

RSU.A.YANI METRO

Ketersediaan Tempat Tidur

No Kelas Rawat Nama Ruang Kapasitas Tersedia Tglupdate
Umum Laki-laki Perempuan
1 NON RPDA KEMO 11 5 0 0 2017-07-20 08:15:02
2 NON R.NEONATUS 6 0 0 0 2017-07-20 08:15:33
3 VIP PAVILIUN 12 0 0 0 2017-07-20 08:16:15
4 KELAS I R.BEDAH I 2 1 0 0 2017-07-20 08:16:41
5 KELAS I R. SARAF 6 2 0 0 2017-07-20 08:17:01
6 KELAS I RPDC 4 0 0 0 2017-07-20 08:17:08
7 KELAS I RPDA 6 0 0 0 2017-07-20 08:17:16
8 KELAS I R.ANAK I 8 0 0 0 2017-07-20 08:17:24
9 KELAS I BERSALIN I 2 0 0 0 2017-07-20 08:17:36
10 KELAS I RPDB I 7 0 0 0 2017-07-20 08:16:28
11 KELAS II R.PARU NON TB 3 2 0 0 2017-07-20 08:17:59
12 KELAS II R.BEDAH II 5 5 0 0 2017-07-20 08:19:13
13 KELAS II R.SARAF II 6 2 0 0 2017-07-20 08:18:27
14 KELAS II RPDC II 12 0 0 0 2017-07-20 08:17:46
15 KELAS II R.ANAK II 6 0 0 0 2017-07-20 08:18:59
16 KELAS II BERSALIN II 2 2 0 0 2017-07-20 08:19:30
17 KELAS II RPDA II 6 2 0 0 2017-07-20 08:19:42
18 KELAS II RPDB II 6 1 0 0 2017-07-20 08:20:06
19 KELAS III R.PARU III TB 10 0 0 0 2017-07-20 08:21:01
20 KELAS III R.ANAK III 15 5 0 0 2017-07-20 08:21:21
21 KELAS III BERSALIN III 11 7 0 0 2017-07-20 08:21:33
22 KELAS III RPDA III 6 0 0 0 2017-07-17 08:39:34
23 KELAS III RPDB III 18 2 0 0 2017-07-17 08:40:29
24 KELAS III R.PARU III NON TB 10 2 0 0 2017-07-20 08:20:21
25 KELAS III R.BEDAH III 38 23 0 0 2017-07-20 08:19:54
26 KELAS III R. SARAF III 9 2 0 0 2017-07-20 08:20:34
27 KELAS III RPDC III 6 0 0 0 2017-07-20 08:20:46
28 ICU ICU 8 0 0 0 2017-07-20 08:21:40
* Informasi dapat berubah pada saat peserta sampai di Rumah Sakit.
* Kolom tersedia adalah jumlah bed tersedia secara umum, baik laki-laki, perempuan, infeksi, non infeksi, dll.
* Kolom tersedia (laki-laki) adalah jumlah bed tersedia khusus untuk pasien laki-laki.
* Kolom tersedia (perempuan) adalah jumlah bed tersedia khusus untuk pasien perempuan.

Sarana

No Nama Sarana Nama Fasilitas Jumlah Total Jumlah Baik Jumlah Rusak Tgl Update
1 BRONCHOSCOPY BRONCHOSCOPY 1 1 0 2017-06-12 01:59:42
2 ENDOSCOPY ENDOSCOPY 1 1 0 2017-06-12 01:59:47
3 HEMODIALISA MESIN HEMODIALISA 11 11 0 2017-06-12 01:59:51
4 RADIOLOGI CT SCAN 1 1 0 2017-06-12 01:59:54
5 RADIOLOGI PANORAMIC 1 1 0 2017-06-12 01:59:57
6 RADIOLOGI USG 4 4 0 2017-06-12 02:00:01

Jadwal Poli

No Nama Poli Jadwal Poli Jam Pelayanan Dokter Tgl Update